createdAt,value
2024-02-10T00:01:09.346Z,7.95
2024-02-10T00:03:37.701Z,7.38
2024-02-10T00:06:07.304Z,7.35
2024-02-10T00:08:39.360Z,6.15
2024-02-10T00:11:07.950Z,6.95
2024-02-10T00:13:39.194Z,6.32
2024-02-10T00:16:13.567Z,7.35
2024-02-10T00:18:43.014Z,8.52
2024-02-10T00:21:11.375Z,8.50
2024-02-10T00:23:39.702Z,7.68
2024-02-10T00:26:08.053Z,7.90
2024-02-10T00:28:37.078Z,7.95
2024-02-10T00:31:05.779Z,8.48
2024-02-10T00:33:35.694Z,8.00
2024-02-10T00:36:03.952Z,8.15
2024-02-10T00:38:32.232Z,9.70
2024-02-10T00:41:04.556Z,8.25
2024-02-10T00:43:33.032Z,8.00
2024-02-10T00:46:01.429Z,7.43
2024-02-10T00:48:29.842Z,6.82
2024-02-10T00:51:00.997Z,7.60
2024-02-10T00:53:29.409Z,7.25
2024-02-10T00:55:57.730Z,7.50
2024-02-10T00:58:26.083Z,7.35
2024-02-10T01:00:55.009Z,6.25
2024-02-10T01:03:23.822Z,6.97
2024-02-10T01:05:52.239Z,6.85
2024-02-10T01:08:23.023Z,7.82
2024-02-10T01:10:52.459Z,6.13
2024-02-10T01:13:20.941Z,5.60
2024-02-10T01:15:51.777Z,5.93
2024-02-10T01:18:20.330Z,5.75
2024-02-10T01:20:48.774Z,5.88
2024-02-10T01:23:17.084Z,5.13
2024-02-10T01:25:46.977Z,4.63
2024-02-10T01:28:15.327Z,5.10
2024-02-10T01:30:43.561Z,5.75
2024-02-10T01:33:13.483Z,4.45
2024-02-10T01:35:41.713Z,4.88
2024-02-10T01:38:10.784Z,4.63
2024-02-10T01:40:39.091Z,4.85
2024-02-10T01:43:08.820Z,4.57
2024-02-10T01:45:39.977Z,4.35
2024-02-10T01:48:10.097Z,3.95
2024-02-10T01:50:39.232Z,4.22
2024-02-10T01:53:07.849Z,3.95
2024-02-10T01:55:36.217Z,4.28
2024-02-10T01:58:07.715Z,4.68
2024-02-10T02:00:37.542Z,4.50
2024-02-10T02:03:06.409Z,4.07
2024-02-10T02:05:35.059Z,4.65
2024-02-10T02:08:05.954Z,4.65
2024-02-10T02:10:34.598Z,4.07
2024-02-10T02:13:04.705Z,4.30
2024-02-10T02:15:33.142Z,4.55
2024-02-10T02:18:02.919Z,4.00
2024-02-10T02:20:31.850Z,4.50
2024-02-10T02:23:04.765Z,4.10
2024-02-10T02:25:36.054Z,4.15
2024-02-10T02:28:04.637Z,4.40
2024-02-10T02:30:37.920Z,4.35
2024-02-10T02:33:07.767Z,4.18
2024-02-10T02:35:36.075Z,4.57
2024-02-10T02:38:05.214Z,4.45
2024-02-10T02:40:33.565Z,4.38
2024-02-10T02:43:03.875Z,3.80
2024-02-10T02:45:32.709Z,4.25
2024-02-10T02:48:03.174Z,3.80
2024-02-10T02:50:32.064Z,4.72
2024-02-10T02:53:01.515Z,4.45
2024-02-10T02:55:31.901Z,3.90
2024-02-10T02:58:10.794Z,4.00
2024-02-10T03:00:40.013Z,3.85
2024-02-10T03:03:08.791Z,3.97
2024-02-10T03:05:37.031Z,4.75
2024-02-10T03:08:08.159Z,5.45
2024-02-10T03:10:38.425Z,4.22
2024-02-10T03:13:06.803Z,4.35
2024-02-10T03:15:38.997Z,3.80
2024-02-10T03:18:09.044Z,3.80
2024-02-10T03:20:37.447Z,4.47
2024-02-10T03:23:08.454Z,4.20
2024-02-10T03:25:38.095Z,4.80
2024-02-10T03:28:06.766Z,3.97
2024-02-10T03:30:35.239Z,3.60
2024-02-10T03:33:03.626Z,4.85
2024-02-10T03:35:34.219Z,4.57
2024-02-10T03:38:03.153Z,4.60
2024-02-10T03:40:31.485Z,4.43
2024-02-10T03:43:01.169Z,4.10
2024-02-10T03:45:34.751Z,3.40
2024-02-10T03:48:08.641Z,5.00
2024-02-10T03:50:37.143Z,4.18
2024-02-10T03:53:05.763Z,5.10
2024-02-10T03:55:34.199Z,4.40
2024-02-10T03:58:04.031Z,4.38
2024-02-10T04:00:32.367Z,4.63
2024-02-10T04:03:00.615Z,4.30
2024-02-10T04:05:34.915Z,4.75
2024-02-10T04:08:04.100Z,4.90
2024-02-10T04:10:32.915Z,4.65
2024-02-10T04:13:04.004Z,5.05
2024-02-10T04:15:33.892Z,4.70
2024-02-10T04:18:03.348Z,4.63
2024-02-10T04:20:31.825Z,5.50
2024-02-10T04:23:00.624Z,5.38
2024-02-10T04:25:32.173Z,6.25
2024-02-10T04:28:03.617Z,7.10
2024-02-10T04:30:33.641Z,7.28
2024-02-10T04:33:02.614Z,8.23
2024-02-10T04:35:31.296Z,9.52
2024-02-10T04:38:03.010Z,9.23
2024-02-10T04:40:31.692Z,9.57
2024-02-10T04:43:00.042Z,8.75
2024-02-10T04:45:30.773Z,8.75
2024-02-10T04:48:01.017Z,8.60
2024-02-10T04:50:30.038Z,9.45
2024-02-10T04:52:58.904Z,10.00
2024-02-10T04:55:27.685Z,10.55
2024-02-10T04:57:57.096Z,9.85
2024-02-10T05:00:26.241Z,10.85
2024-02-10T05:02:54.659Z,10.82
2024-02-10T05:05:24.718Z,10.25
2024-02-10T05:07:55.139Z,10.20
2024-02-10T05:10:23.892Z,10.15
2024-02-10T05:12:53.644Z,10.23
2024-02-10T05:15:24.574Z,10.60
2024-02-10T05:17:54.160Z,9.77
2024-02-10T05:20:25.472Z,9.70
2024-02-10T05:22:54.980Z,9.68
2024-02-10T05:25:24.916Z,9.15
2024-02-10T05:27:53.921Z,9.13
2024-02-10T05:30:25.446Z,10.43
2024-02-10T05:32:54.782Z,9.45
2024-02-10T05:35:25.744Z,10.35
2024-02-10T05:37:56.250Z,9.85
2024-02-10T05:40:25.596Z,10.55
2024-02-10T05:42:57.918Z,11.65
2024-02-10T05:45:26.166Z,11.10
2024-02-10T05:47:54.865Z,11.45
2024-02-10T05:50:26.448Z,11.10
2024-02-10T05:52:58.952Z,10.73
2024-02-10T05:55:28.874Z,10.85
2024-02-10T05:58:00.429Z,11.35
2024-02-10T06:00:28.865Z,10.13
2024-02-10T06:02:57.528Z,10.50
2024-02-10T06:05:29.414Z,11.80
2024-02-10T06:07:59.137Z,10.70
2024-02-10T06:10:27.822Z,11.00
2024-02-10T06:12:56.554Z,12.35
2024-02-10T06:15:28.013Z,11.88
2024-02-10T06:17:57.974Z,28.52
2024-02-10T06:20:28.038Z,14.20
2024-02-10T06:22:58.385Z,10.98
2024-02-10T06:25:28.009Z,11.32
2024-02-10T06:27:58.411Z,12.85
2024-02-10T06:30:29.543Z,16.98
2024-02-10T06:32:58.736Z,11.18
2024-02-10T06:35:29.037Z,11.70
2024-02-10T06:37:58.745Z,12.73
2024-02-10T06:40:27.095Z,13.75
2024-02-10T06:42:55.395Z,12.50
2024-02-10T06:45:26.241Z,14.38
2024-02-10T06:47:55.064Z,12.38
2024-02-10T06:50:28.416Z,11.43
2024-02-10T06:53:01.779Z,11.70
2024-02-10T06:55:31.056Z,12.38
2024-02-10T06:58:02.206Z,11.25
2024-02-10T07:00:31.968Z,9.50
2024-02-10T07:03:01.410Z,11.02
2024-02-10T07:05:29.884Z,9.45
2024-02-10T07:08:00.122Z,10.85
2024-02-10T07:10:28.696Z,9.82
2024-02-10T07:12:59.770Z,9.60
2024-02-10T07:15:31.928Z,9.82
2024-02-10T07:18:04.045Z,9.93
2024-02-10T07:20:33.961Z,9.38
2024-02-10T07:23:06.018Z,9.88
2024-02-10T07:25:36.971Z,9.57
2024-02-10T07:28:06.722Z,11.18
2024-02-10T07:30:36.686Z,10.70
2024-02-10T07:33:11.156Z,10.10
2024-02-10T07:35:41.945Z,10.20
2024-02-10T07:38:12.297Z,9.98
2024-02-10T07:40:41.080Z,8.88
2024-02-10T07:43:13.858Z,10.13
2024-02-10T07:45:42.291Z,8.93
2024-02-10T07:48:10.909Z,9.38
2024-02-10T07:50:42.170Z,9.10
2024-02-10T07:53:16.099Z,8.73
2024-02-10T07:55:48.668Z,8.93
2024-02-10T07:58:18.023Z,8.77
2024-02-10T08:00:48.265Z,8.40
2024-02-10T08:03:16.757Z,8.82
2024-02-10T08:05:45.098Z,8.75
2024-02-10T08:08:15.066Z,9.38
2024-02-10T08:10:43.437Z,8.93
2024-02-10T08:13:11.816Z,9.13
2024-02-10T08:15:40.674Z,8.48
2024-02-10T08:18:11.020Z,9.07
2024-02-10T08:20:42.732Z,9.20
2024-02-10T08:23:14.054Z,10.70
2024-02-10T08:25:45.158Z,9.27
2024-02-10T08:28:13.560Z,9.90
2024-02-10T08:30:41.841Z,10.15
2024-02-10T08:33:10.213Z,9.75
2024-02-10T08:35:40.759Z,14.02
2024-02-10T08:38:10.827Z,14.25
2024-02-10T08:40:39.143Z,9.43
2024-02-10T08:43:10.631Z,11.70
2024-02-10T08:45:40.377Z,9.35
2024-02-10T08:48:12.412Z,9.48
2024-02-10T08:50:43.051Z,9.23
2024-02-10T08:53:15.768Z,9.95
2024-02-10T08:55:44.541Z,9.82
2024-02-10T08:58:14.745Z,8.52
2024-02-10T09:00:46.953Z,8.88
2024-02-10T09:03:15.997Z,17.85
2024-02-10T09:05:44.607Z,24.88
2024-02-10T09:08:13.161Z,11.50
2024-02-10T09:10:41.803Z,11.82
2024-02-10T09:13:10.419Z,9.35
2024-02-10T09:15:40.212Z,8.25
2024-02-10T09:18:08.930Z,8.30
2024-02-10T09:20:37.401Z,8.68
2024-02-10T09:23:06.148Z,8.52
2024-02-10T09:25:38.664Z,9.38
2024-02-10T09:28:07.744Z,9.27
2024-02-10T09:30:37.854Z,9.95
2024-02-10T09:33:21.267Z,9.15
2024-02-10T09:35:50.052Z,10.10
2024-02-10T09:38:18.288Z,9.75
2024-02-10T09:40:46.621Z,10.70
2024-02-10T09:43:17.689Z,9.88
2024-02-10T09:45:47.880Z,10.32
2024-02-10T09:48:21.321Z,10.25
2024-02-10T09:50:49.951Z,12.02
2024-02-10T09:53:18.430Z,12.10
2024-02-10T09:55:47.451Z,11.68
2024-02-10T09:58:18.119Z,11.23
2024-02-10T10:00:49.065Z,10.60
2024-02-10T10:03:19.041Z,11.23
2024-02-10T10:05:48.821Z,11.23
2024-02-10T10:08:23.228Z,11.20
2024-02-10T10:10:52.206Z,10.27
2024-02-10T10:13:20.640Z,11.27
2024-02-10T10:15:48.931Z,10.63
2024-02-10T10:18:20.982Z,10.65
2024-02-10T10:20:50.037Z,10.63
2024-02-10T10:23:18.971Z,11.55
2024-02-10T10:25:48.998Z,10.82
2024-02-10T10:28:19.800Z,10.10
2024-02-10T10:30:49.541Z,10.82
2024-02-10T10:33:23.247Z,9.75
2024-02-10T10:35:52.025Z,10.27
2024-02-10T10:38:23.752Z,10.10
2024-02-10T10:40:54.617Z,9.00
2024-02-10T10:43:23.926Z,10.40
2024-02-10T10:45:56.276Z,9.90
2024-02-10T10:48:26.829Z,9.85
2024-02-10T10:50:58.912Z,8.60
2024-02-10T10:53:29.051Z,8.48
2024-02-10T10:56:01.207Z,8.57
2024-02-10T10:58:33.729Z,7.97
2024-02-10T11:01:03.718Z,7.82
2024-02-10T11:03:33.590Z,8.25
2024-02-10T11:06:12.277Z,8.15
2024-02-10T11:08:46.636Z,7.10
2024-02-10T11:11:15.880Z,6.82
2024-02-10T11:13:45.497Z,7.18
2024-02-10T11:16:15.732Z,7.13
2024-02-10T11:18:47.422Z,6.68
2024-02-10T11:21:20.923Z,6.88
2024-02-10T11:24:01.071Z,6.95
2024-02-10T11:26:30.675Z,7.13
2024-02-10T11:29:02.651Z,5.80
2024-02-10T11:31:31.131Z,5.75
2024-02-10T11:34:07.129Z,7.38
2024-02-10T11:36:37.329Z,6.53
2024-02-10T11:39:11.271Z,9.20
2024-02-10T11:41:41.285Z,5.63
2024-02-10T11:44:10.041Z,6.05
2024-02-10T11:46:38.833Z,5.18
2024-02-10T11:49:11.930Z,5.15
2024-02-10T11:51:40.457Z,5.20
2024-02-10T11:54:08.930Z,6.25
2024-02-10T11:56:37.967Z,5.60
2024-02-10T11:59:06.467Z,5.28
2024-02-10T12:01:35.806Z,5.45
2024-02-10T12:04:05.798Z,4.70
2024-02-10T12:06:37.922Z,5.28
2024-02-10T12:09:10.917Z,4.35
2024-02-10T12:11:39.546Z,4.38
2024-02-10T12:14:15.337Z,3.80
2024-02-10T12:16:45.875Z,4.72
2024-02-10T12:19:16.125Z,3.75
2024-02-10T12:21:48.770Z,4.15
2024-02-10T12:24:17.902Z,4.25
2024-02-10T12:26:46.272Z,4.50
2024-02-10T12:29:15.293Z,3.70
2024-02-10T12:31:44.468Z,4.00
2024-02-10T12:34:15.866Z,4.13
2024-02-10T12:36:46.007Z,4.78
2024-02-10T12:39:16.198Z,4.72
2024-02-10T12:41:45.287Z,4.80
2024-02-10T12:44:13.827Z,4.50
2024-02-10T12:46:42.240Z,4.55
2024-02-10T12:49:11.059Z,4.68
2024-02-10T12:51:42.358Z,5.25
2024-02-10T12:54:15.018Z,4.65
2024-02-10T12:56:43.765Z,4.45
2024-02-10T12:59:12.348Z,5.03
2024-02-10T13:01:40.930Z,5.57
2024-02-10T13:04:09.450Z,3.80
2024-02-10T13:06:37.877Z,4.07
2024-02-10T13:09:06.274Z,4.07
2024-02-10T13:11:36.048Z,4.38
2024-02-10T13:14:04.396Z,4.97
2024-02-10T13:16:32.762Z,4.35
2024-02-10T13:19:01.200Z,5.07
2024-02-10T13:21:29.603Z,4.03
2024-02-10T13:23:58.342Z,4.90
2024-02-10T13:26:26.600Z,4.38
2024-02-10T13:28:56.545Z,4.50
2024-02-10T13:31:25.219Z,5.25
2024-02-10T13:33:55.266Z,4.70
2024-02-10T13:36:36.974Z,4.60
2024-02-10T13:39:23.164Z,6.03
2024-02-10T13:42:08.560Z,5.55
2024-02-10T13:44:55.589Z,5.32
2024-02-10T13:47:41.430Z,5.75
2024-02-10T13:50:30.888Z,8.80
2024-02-10T13:53:16.472Z,6.20
2024-02-10T13:56:02.386Z,9.75
2024-02-10T13:58:29.541Z,6.90
2024-02-10T14:00:59.544Z,7.55
2024-02-10T14:03:32.330Z,7.13
2024-02-10T14:06:09.741Z,8.80
2024-02-10T14:08:43.610Z,6.50
2024-02-10T14:11:21.600Z,9.85
2024-02-10T14:13:53.224Z,6.35
2024-02-10T14:16:29.270Z,7.18
2024-02-10T14:19:01.104Z,6.22
2024-02-10T14:21:37.491Z,6.43
2024-02-10T14:24:07.477Z,6.20
2024-02-10T14:26:53.879Z,7.05
2024-02-10T14:29:34.758Z,6.28
2024-02-10T14:32:11.521Z,6.40
2024-02-10T14:35:02.035Z,6.70
2024-02-10T14:37:42.602Z,7.07
2024-02-10T14:40:17.184Z,6.75
2024-02-10T14:42:45.689Z,6.35
2024-02-10T14:45:20.301Z,7.20
2024-02-10T14:47:50.164Z,6.97
2024-02-10T14:50:19.250Z,6.75
2024-02-10T14:52:48.686Z,6.13
2024-02-10T14:55:20.678Z,8.02
2024-02-10T14:57:49.146Z,7.15
2024-02-10T15:00:18.307Z,6.75
2024-02-10T15:02:46.614Z,6.25
2024-02-10T15:05:16.454Z,6.10
2024-02-10T15:07:44.782Z,5.75
2024-02-10T15:10:13.182Z,6.95
2024-02-10T15:12:41.569Z,5.63
2024-02-10T15:15:12.196Z,6.75
2024-02-10T15:17:40.506Z,7.78
2024-02-10T15:20:10.470Z,6.85
2024-02-10T15:22:42.956Z,7.25
2024-02-10T15:25:15.368Z,6.07
2024-02-10T15:27:45.825Z,7.45
2024-02-10T15:30:15.049Z,9.40
2024-02-10T15:32:47.710Z,8.52
2024-02-10T15:35:16.194Z,18.08
2024-02-10T15:37:45.974Z,25.45
2024-02-10T15:40:21.970Z,25.23
2024-02-10T15:42:52.210Z,14.48
2024-02-10T15:45:31.265Z,10.45
2024-02-10T15:47:59.885Z,9.50
2024-02-10T15:50:28.187Z,7.15
2024-02-10T15:52:57.829Z,7.18
2024-02-10T15:55:26.137Z,9.65
2024-02-10T15:57:54.484Z,6.07
2024-02-10T16:00:24.915Z,5.95
2024-02-10T16:02:53.651Z,28.02
2024-02-10T16:05:23.352Z,24.98
2024-02-10T16:07:53.204Z,11.60
2024-02-10T16:10:23.075Z,13.90
2024-02-10T16:12:52.471Z,9.27
2024-02-10T16:15:22.632Z,6.70
2024-02-10T16:17:52.329Z,9.48
2024-02-10T16:20:22.364Z,8.48
2024-02-10T16:22:52.792Z,7.35
2024-02-10T16:25:28.590Z,7.43
2024-02-10T16:27:59.091Z,8.90
2024-02-10T16:30:29.560Z,11.15
2024-02-10T16:32:57.997Z,6.47
2024-02-10T16:35:27.842Z,6.85
2024-02-10T16:37:57.579Z,6.65
2024-02-10T16:40:30.976Z,6.30
2024-02-10T16:42:59.904Z,8.98
2024-02-10T16:45:28.867Z,14.15
2024-02-10T16:47:57.214Z,14.23
2024-02-10T16:50:28.479Z,15.70
2024-02-10T16:53:06.559Z,8.32
2024-02-10T16:55:38.547Z,9.70
2024-02-10T16:58:09.196Z,9.30
2024-02-10T17:00:37.750Z,8.93
2024-02-10T17:03:09.187Z,13.88
2024-02-10T17:05:41.011Z,7.43
2024-02-10T17:08:09.898Z,7.03
2024-02-10T17:10:41.342Z,7.80
2024-02-10T17:13:11.214Z,7.30
2024-02-10T17:15:40.163Z,13.32
2024-02-10T17:18:15.517Z,6.97
2024-02-10T17:20:48.335Z,20.20
2024-02-10T17:23:18.287Z,16.98
2024-02-10T17:25:48.012Z,7.85
2024-02-10T17:28:16.489Z,9.40
2024-02-10T17:30:45.443Z,19.13
2024-02-10T17:33:13.964Z,14.70
2024-02-10T17:35:45.654Z,9.05
2024-02-10T17:38:15.992Z,10.93
2024-02-10T17:40:45.087Z,10.98
2024-02-10T17:43:17.478Z,8.60
2024-02-10T17:45:46.699Z,9.07
2024-02-10T17:48:21.687Z,7.95
2024-02-10T17:50:50.435Z,8.20
2024-02-10T17:53:23.912Z,8.02
2024-02-10T17:55:55.440Z,6.57
2024-02-10T17:58:31.290Z,6.40
2024-02-10T18:01:00.442Z,5.95
2024-02-10T18:03:32.222Z,5.75
2024-02-10T18:06:02.089Z,7.28
2024-02-10T18:08:36.220Z,7.40
2024-02-10T18:11:04.604Z,7.95
2024-02-10T18:13:34.506Z,6.85
2024-02-10T18:16:02.837Z,5.82
2024-02-10T18:18:34.429Z,7.22
2024-02-10T18:21:03.121Z,6.18
2024-02-10T18:23:34.096Z,6.60
2024-02-10T18:26:02.576Z,6.35
2024-02-10T18:28:31.541Z,6.43
2024-02-10T18:31:02.602Z,6.30
2024-02-10T18:33:31.045Z,5.35
2024-02-10T18:36:00.605Z,6.82
2024-02-10T18:38:28.885Z,7.85
2024-02-10T18:41:00.734Z,6.90
2024-02-10T18:43:31.322Z,5.95
2024-02-10T18:46:01.402Z,5.68
2024-02-10T18:48:29.988Z,6.72
2024-02-10T18:50:58.390Z,6.97
2024-02-10T18:53:26.687Z,6.10
2024-02-10T18:55:55.387Z,5.78
2024-02-10T18:58:23.769Z,6.20
2024-02-10T19:00:52.615Z,6.18
2024-02-10T19:03:23.523Z,6.70
2024-02-10T19:05:55.120Z,7.45
2024-02-10T19:08:23.861Z,6.18
2024-02-10T19:10:52.172Z,6.22
2024-02-10T19:13:28.187Z,6.28
2024-02-10T19:15:56.449Z,5.93
2024-02-10T19:18:26.156Z,5.93
2024-02-10T19:20:55.909Z,6.78
2024-02-10T19:23:24.201Z,6.65
2024-02-10T19:25:53.002Z,5.85
2024-02-10T19:28:21.270Z,6.05
2024-02-10T19:30:51.192Z,6.30
2024-02-10T19:33:20.093Z,6.63
2024-02-10T19:35:50.678Z,6.85
2024-02-10T19:38:26.434Z,6.05
2024-02-10T19:40:59.464Z,6.18
2024-02-10T19:43:29.934Z,5.70
2024-02-10T19:45:59.290Z,5.72
2024-02-10T19:48:29.860Z,6.35
2024-02-10T19:51:00.065Z,7.30
2024-02-10T19:53:29.814Z,6.60
2024-02-10T19:55:58.386Z,8.63
2024-02-10T19:58:28.590Z,8.18
2024-02-10T20:00:59.396Z,7.25
2024-02-10T20:03:28.983Z,8.32
2024-02-10T20:05:58.831Z,9.55
2024-02-10T20:08:29.130Z,9.52
2024-02-10T20:10:57.654Z,9.40
2024-02-10T20:13:27.007Z,9.63
2024-02-10T20:15:55.410Z,8.15
2024-02-10T20:18:23.738Z,8.25
2024-02-10T20:20:52.000Z,8.13
2024-02-10T20:23:22.090Z,7.07
2024-02-10T20:25:55.209Z,7.20
2024-02-10T20:28:23.528Z,6.85
2024-02-10T20:30:52.055Z,6.25
2024-02-10T20:33:20.445Z,7.20
2024-02-10T20:35:48.965Z,6.50
2024-02-10T20:38:17.426Z,7.03
2024-02-10T20:40:46.104Z,7.97
2024-02-10T20:43:15.869Z,7.50
2024-02-10T20:45:44.331Z,7.60
2024-02-10T20:48:12.909Z,6.82
2024-02-10T20:50:41.810Z,7.70
2024-02-10T20:53:11.483Z,7.30
2024-02-10T20:55:40.016Z,6.88
2024-02-10T20:58:12.623Z,6.05
2024-02-10T21:00:42.330Z,5.60
2024-02-10T21:03:13.517Z,5.38
2024-02-10T21:05:42.086Z,10.15
2024-02-10T21:08:10.502Z,13.98
2024-02-10T21:10:38.869Z,10.07
2024-02-10T21:13:07.169Z,9.00
2024-02-10T21:15:35.435Z,8.48
2024-02-10T21:18:07.169Z,8.73
2024-02-10T21:20:35.567Z,5.55
2024-02-10T21:23:04.856Z,5.50
2024-02-10T21:25:34.634Z,7.05
2024-02-10T21:28:02.963Z,8.60
2024-02-10T21:30:34.212Z,15.00
2024-02-10T21:33:03.544Z,9.77
2024-02-10T21:35:33.297Z,8.82
2024-02-10T21:38:01.813Z,10.63
2024-02-10T21:40:30.135Z,9.30
2024-02-10T21:42:58.476Z,6.90
2024-02-10T21:45:26.743Z,6.22
2024-02-10T21:47:55.878Z,7.68
2024-02-10T21:50:24.913Z,10.15
2024-02-10T21:52:55.713Z,8.63
2024-02-10T21:55:23.985Z,8.95
2024-02-10T21:57:52.815Z,7.18
2024-02-10T22:00:26.595Z,6.50
2024-02-10T22:02:55.055Z,6.13
2024-02-10T22:05:23.507Z,6.95
2024-02-10T22:07:52.005Z,7.90
2024-02-10T22:10:22.681Z,7.30
2024-02-10T22:12:50.937Z,6.93
2024-02-10T22:15:20.594Z,6.50
2024-02-10T22:17:49.776Z,8.30
2024-02-10T22:20:21.320Z,7.45
2024-02-10T22:22:51.568Z,8.00
2024-02-10T22:25:23.552Z,7.30
2024-02-10T22:27:52.594Z,6.60
2024-02-10T22:30:22.790Z,7.43
2024-02-10T22:32:52.509Z,6.72
2024-02-10T22:35:21.156Z,7.18
2024-02-10T22:37:57.799Z,7.10
2024-02-10T22:40:28.474Z,7.25
2024-02-10T22:42:59.296Z,8.80
2024-02-10T22:45:27.596Z,7.57
2024-02-10T22:47:56.092Z,8.00
2024-02-10T22:50:24.506Z,7.75
2024-02-10T22:52:53.001Z,8.02
2024-02-10T22:55:21.471Z,8.63
2024-02-10T22:57:51.168Z,8.02
2024-02-10T23:00:29.838Z,9.63
2024-02-10T23:02:58.251Z,8.85
2024-02-10T23:05:26.585Z,9.57
2024-02-10T23:07:55.679Z,10.63
2024-02-10T23:10:24.109Z,10.68
2024-02-10T23:13:07.345Z,10.65
2024-02-10T23:15:36.866Z,12.38
2024-02-10T23:18:12.093Z,12.65
2024-02-10T23:20:42.713Z,12.73
2024-02-10T23:23:14.504Z,13.18
2024-02-10T23:25:44.420Z,12.15
2024-02-10T23:28:17.012Z,13.40
2024-02-10T23:30:51.104Z,13.57
2024-02-10T23:33:20.980Z,12.52
2024-02-10T23:35:51.920Z,10.52
2024-02-10T23:38:22.351Z,11.13
2024-02-10T23:40:50.769Z,9.60
2024-02-10T23:43:23.409Z,10.65
2024-02-10T23:45:51.938Z,10.70
2024-02-10T23:48:24.441Z,9.80
2024-02-10T23:50:53.498Z,8.90
2024-02-10T23:53:22.993Z,9.50
2024-02-10T23:55:51.336Z,9.05
2024-02-10T23:58:21.700Z,11.07
